Skykomish, Washington
Current Conditions -  °F | °C
As of 5:53 PM on Thursday 18 Dec 2014 (Local Time) from KRNT Reporting Station
Light Rain Light Rain  
Wind Chill: 45°   Ceiling: 5500
Heat Index: 48°   Visibility: 9mi
Dew Point: 43°   Wind: 6mph
Humidity: 83%   Direction: 110°ESE
Pressure: 29.76"   Gusts: NA
Location:  47.71°N, 121.36°W
Report Text: KRNT 190153Z 11005KT 9SM -RA OVC055 09/06 A2976 RMK AO2 RAE04B41 SLP083 P0000 T00890061
Loading
Personal Weather Stations






























Interactive Weather Map New forecast layout! Learn more

10-Day Weather Forecast

Advertisements
Track Severe Weather on mobile